Time;durP1;ratioP1;P1;durP2;ratioP2;P2;SDS_P1;SDS_P2;PMS_P1;PMS_P2;Temp;Humidity;BMP_temperature;BMP_pressure;BME280_temperature;BME280_humidity;BME280_pressure;Samples;Min_cycle;Max_cycle;Signal;HPM_P1;HPM_P2
2022/03/28 00:00:20;;;;;;;2.10;1.50;;;22.40;39.50;;;;;;4997565;28;20088;-64
2022/03/28 00:02:46;;;;;;;2.55;1.50;;;22.40;39.50;;;;;;5000471;28;20265;-66
2022/03/28 00:05:13;;;;;;;2.13;1.35;;;22.40;39.50;;;;;;5006213;28;20029;-64
2022/03/28 00:07:40;;;;;;;2.38;1.50;;;22.40;39.50;;;;;;5005033;28;21742;-64
2022/03/28 00:10:06;;;;;;;2.20;1.50;;;22.40;39.50;;;;;;5004997;28;20091;-63
2022/03/28 00:12:33;;;;;;;2.25;1.50;;;22.40;39.50;;;;;;5004636;28;20105;-65
2022/03/28 00:14:58;;;;;;;2.38;1.40;;;22.40;39.50;;;;;;5004717;28;20030;-62
2022/03/28 00:17:24;;;;;;;2.13;1.58;;;22.40;39.50;;;;;;5002456;28;20048;-66
2022/03/28 00:19:50;;;;;;;2.13;1.35;;;22.40;39.50;;;;;;5006644;28;20121;-63
2022/03/28 00:22:15;;;;;;;2.17;1.48;;;22.40;39.60;;;;;;5003360;28;20037;-67
2022/03/28 00:24:41;;;;;;;2.05;1.40;;;22.40;39.60;;;;;;5003886;28;20155;-66
2022/03/28 00:27:07;;;;;;;2.40;1.60;;;22.40;39.60;;;;;;5004558;28;20030;-64
2022/03/28 00:29:32;;;;;;;3.40;1.88;;;22.40;39.60;;;;;;5004173;28;20026;-61
2022/03/28 00:31:58;;;;;;;2.88;1.50;;;22.30;39.50;;;;;;5001004;28;20518;-63
2022/03/28 00:34:23;;;;;;;2.03;1.33;;;22.30;39.50;;;;;;4999316;28;20038;-63
2022/03/28 00:36:50;;;;;;;2.53;1.50;;;22.30;39.50;;;;;;5005488;28;20030;-64
2022/03/28 00:39:20;;;;;;;1.90;1.38;;;22.30;39.60;;;;;;5005238;28;20041;-66
2022/03/28 00:41:50;;;;;;;2.60;1.60;;;22.30;39.60;;;;;;5002220;28;20034;-64
2022/03/28 00:44:16;;;;;;;2.40;1.40;;;22.30;39.60;;;;;;5004008;28;20092;-66
2022/03/28 00:46:42;;;;;;;1.92;1.27;;;22.30;39.60;;;;;;5002039;28;20402;-63
2022/03/28 00:49:08;;;;;;;2.05;1.40;;;22.30;39.60;;;;;;5005792;28;20458;-60
2022/03/28 00:51:34;;;;;;;2.33;1.50;;;22.30;39.50;;;;;;5005064;28;20034;-66
2022/03/28 00:54:01;;;;;;;2.25;1.50;;;22.30;39.60;;;;;;5002822;28;20054;-65
2022/03/28 00:56:27;;;;;;;2.80;1.40;;;22.30;39.60;;;;;;5001653;28;20359;-62
2022/03/28 00:58:53;;;;;;;1.95;1.40;;;22.30;39.50;;;;;;5000434;28;20098;-60
2022/03/28 01:01:18;;;;;;;2.17;1.30;;;22.30;39.50;;;;;;5001652;28;20125;-63
2022/03/28 01:03:45;;;;;;;2.88;1.58;;;22.30;39.50;;;;;;4996088;28;20113;-63
2022/03/28 01:06:11;;;;;;;2.42;1.50;;;22.30;39.50;;;;;;5002234;28;20034;-65
2022/03/28 01:08:36;;;;;;;2.65;1.38;;;22.30;39.50;;;;;;5002515;28;20049;-60
2022/03/28 01:11:06;;;;;;;2.10;1.30;;;22.30;39.50;;;;;;5003100;28;20115;-63
2022/03/28 01:13:33;;;;;;;2.13;1.40;;;22.30;39.50;;;;;;4999914;28;20057;-62
2022/03/28 01:15:59;;;;;;;3.65;1.55;;;22.30;39.60;;;;;;5002763;28;20119;-67
2022/03/28 01:18:26;;;;;;;2.20;1.52;;;22.20;39.50;;;;;;5003085;28;20577;-64
2022/03/28 01:21:02;;;;;;;2.42;1.45;;;22.20;39.50;;;;;;5005782;28;20037;-62
2022/03/28 01:23:28;;;;;;;1.90;1.40;;;22.20;39.50;;;;;;5001317;28;20022;-65
2022/03/28 01:25:56;;;;;;;2.30;1.40;;;22.20;39.50;;;;;;5001042;28;20076;-63
2022/03/28 01:28:24;;;;;;;2.00;1.40;;;22.20;39.50;;;;;;5003872;28;20022;-64
2022/03/28 01:30:51;;;;;;;2.00;1.30;;;22.20;39.50;;;;;;5001883;28;20034;-60
2022/03/28 01:33:17;;;;;;;2.03;1.30;;;22.20;39.50;;;;;;4999180;28;20033;-60
2022/03/28 01:35:46;;;;;;;1.90;1.30;;;22.20;39.50;;;;;;5001741;28;20017;-61
2022/03/28 01:38:14;;;;;;;1.90;1.30;;;22.20;39.50;;;;;;5004004;28;20029;-64
2022/03/28 01:40:43;;;;;;;2.53;1.52;;;22.20;39.50;;;;;;5003391;28;20140;-63
2022/03/28 01:43:09;;;;;;;2.90;1.50;;;22.20;39.50;;;;;;5001127;28;20197;-60
2022/03/28 01:45:35;;;;;;;1.98;1.40;;;22.10;39.50;;;;;;5000814;28;20641;-63
2022/03/28 01:48:01;;;;;;;2.22;1.52;;;22.10;39.40;;;;;;5002202;28;20084;-66
2022/03/28 01:50:27;;;;;;;1.70;1.20;;;22.10;39.40;;;;;;5003716;28;20030;-62
2022/03/28 01:52:53;;;;;;;2.25;1.25;;;22.10;39.50;;;;;;5003845;28;20036;-63
2022/03/28 01:55:19;;;;;;;1.70;1.27;;;22.10;39.50;;;;;;5000408;28;20466;-63
2022/03/28 01:57:45;;;;;;;1.90;1.40;;;22.10;39.40;;;;;;5000072;28;20158;-62
2022/03/28 02:00:16;;;;;;;2.22;1.40;;;22.10;39.40;;;;;;4998661;28;20116;-64
2022/03/28 02:02:43;;;;;;;1.80;1.30;;;22.10;39.50;;;;;;5000889;28;20344;-64
2022/03/28 02:05:12;;;;;;;3.17;2.00;;;22.10;39.50;;;;;;5001327;28;20517;-65
2022/03/28 02:07:42;;;;;;;2.13;1.40;;;22.10;39.50;;;;;;5002453;28;20026;-63
2022/03/28 02:10:10;;;;;;;1.77;1.30;;;22.10;39.40;;;;;;4997084;28;20133;-63
2022/03/28 02:12:36;;;;;;;1.63;1.27;;;22.10;39.50;;;;;;5001091;28;21957;-61
2022/03/28 02:15:03;;;;;;;2.20;1.38;;;22.10;39.40;;;;;;4998135;28;20032;-63
2022/03/28 02:17:30;;;;;;;2.00;1.40;;;22.10;39.50;;;;;;4998644;28;20029;-64
2022/03/28 02:19:56;;;;;;;2.10;1.27;;;22.10;39.40;;;;;;5002601;28;20482;-63
2022/03/28 02:22:21;;;;;;;1.80;1.40;;;22.10;39.40;;;;;;5003594;28;20034;-65
2022/03/28 02:24:47;;;;;;;1.67;1.25;;;22.00;39.40;;;;;;5000293;28;20025;-61
2022/03/28 02:27:13;;;;;;;1.95;1.23;;;22.00;39.40;;;;;;5000504;28;20036;-64
2022/03/28 02:29:39;;;;;;;1.88;1.30;;;22.00;39.40;;;;;;4998041;28;20495;-66
2022/03/28 02:32:05;;;;;;;1.40;1.00;;;22.00;39.40;;;;;;4998762;28;20050;-61
2022/03/28 02:34:31;;;;;;;1.73;1.30;;;22.00;39.40;;;;;;5000410;28;20109;-63
2022/03/28 02:36:56;;;;;;;2.38;1.30;;;22.00;39.40;;;;;;4998604;28;20101;-61
2022/03/28 02:39:22;;;;;;;2.20;1.25;;;22.00;39.40;;;;;;5001460;28;20029;-62
2022/03/28 02:41:48;;;;;;;2.20;1.27;;;22.00;39.40;;;;;;4998920;28;20029;-63
2022/03/28 02:44:14;;;;;;;1.80;1.27;;;22.00;39.40;;;;;;5001611;28;20030;-64
2022/03/28 02:46:39;;;;;;;2.50;1.45;;;22.00;39.50;;;;;;4999768;28;20433;-66
2022/03/28 02:49:05;;;;;;;1.70;1.20;;;22.00;39.50;;;;;;4999444;28;20034;-64
2022/03/28 02:51:31;;;;;;;1.75;1.20;;;22.00;39.50;;;;;;5000769;28;20025;-63
2022/03/28 02:53:56;;;;;;;1.88;1.30;;;22.00;39.50;;;;;;5000559;28;20069;-62
2022/03/28 02:56:22;;;;;;;1.60;1.20;;;22.00;39.40;;;;;;4997754;28;20068;-61
2022/03/28 02:58:48;;;;;;;2.10;1.30;;;22.00;39.50;;;;;;5001737;28;20032;-62
2022/03/28 03:01:14;;;;;;;1.45;1.10;;;21.90;39.40;;;;;;4998040;28;20128;-64
2022/03/28 03:03:40;;;;;;;1.33;1.10;;;21.90;39.40;;;;;;5000262;28;20489;-64
2022/03/28 03:06:05;;;;;;;2.50;1.40;;;21.90;39.40;;;;;;5001275;28;20095;-62
2022/03/28 03:08:31;;;;;;;1.60;1.20;;;21.90;39.40;;;;;;5001068;28;20454;-63
2022/03/28 03:10:57;;;;;;;1.92;1.38;;;21.90;39.40;;;;;;4998437;28;20408;-64
2022/03/28 03:13:22;;;;;;;2.17;1.40;;;21.90;39.50;;;;;;5000238;28;20397;-62
2022/03/28 03:15:48;;;;;;;2.30;1.35;;;21.90;39.50;;;;;;4995274;28;20025;-63
2022/03/28 03:18:13;;;;;;;2.65;1.30;;;21.90;39.40;;;;;;5000134;28;20107;-66
2022/03/28 03:20:39;;;;;;;2.03;1.30;;;21.90;39.50;;;;;;4998852;28;20818;-62
2022/03/28 03:23:05;;;;;;;2.00;1.30;;;21.90;39.50;;;;;;4999824;28;20038;-63
2022/03/28 03:25:30;;;;;;;2.10;1.42;;;21.90;39.40;;;;;;4998241;28;20021;-65
2022/03/28 03:27:57;;;;;;;1.73;1.25;;;21.90;39.40;;;;;;5000422;28;20409;-63
2022/03/28 03:30:23;;;;;;;1.83;1.30;;;21.90;39.50;;;;;;4999673;28;20535;-64
2022/03/28 03:32:49;;;;;;;1.75;1.25;;;21.90;39.50;;;;;;4998533;28;20334;-61
2022/03/28 03:35:14;;;;;;;1.95;1.38;;;21.90;39.50;;;;;;5000309;28;20064;-61
2022/03/28 03:37:40;;;;;;;1.75;1.15;;;21.90;39.50;;;;;;5007047;28;20435;-64
2022/03/28 03:40:07;;;;;;;1.98;1.20;;;21.90;39.50;;;;;;5004670;28;20030;-64
2022/03/28 03:42:33;;;;;;;1.58;1.23;;;21.90;39.50;;;;;;5002943;28;20042;-63
2022/03/28 03:44:59;;;;;;;1.80;1.20;;;21.90;39.50;;;;;;5002281;28;20449;-65
2022/03/28 03:47:25;;;;;;;1.50;1.20;;;21.80;39.40;;;;;;5003455;28;20121;-62
2022/03/28 03:49:51;;;;;;;1.63;1.20;;;21.90;39.50;;;;;;5006605;28;20502;-63
2022/03/28 03:52:16;;;;;;;2.10;1.40;;;21.80;39.40;;;;;;5009841;28;20080;-64
2022/03/28 03:54:42;;;;;;;1.75;1.20;;;21.90;39.50;;;;;;5003323;28;20141;-62
2022/03/28 03:57:08;;;;;;;2.17;1.40;;;21.80;39.40;;;;;;5002735;28;20446;-63
2022/03/28 03:59:34;;;;;;;1.88;1.30;;;21.80;39.50;;;;;;4996690;28;20053;-63
2022/03/28 04:02:00;;;;;;;1.67;1.20;;;21.80;39.40;;;;;;4992606;28;20058;-62
2022/03/28 04:04:25;;;;;;;1.70;1.27;;;21.80;39.40;;;;;;5000936;28;20029;-63
2022/03/28 04:06:51;;;;;;;2.35;1.20;;;21.80;39.40;;;;;;5001547;28;20026;-62
2022/03/28 04:09:17;;;;;;;1.60;1.17;;;21.80;39.40;;;;;;5005355;28;20029;-66
2022/03/28 04:11:42;;;;;;;1.90;1.35;;;21.80;39.40;;;;;;4995530;28;20286;-64
2022/03/28 04:14:08;;;;;;;2.53;1.40;;;21.80;39.40;;;;;;5001760;28;20065;-66
2022/03/28 04:16:34;;;;;;;2.00;1.23;;;21.80;39.50;;;;;;4997775;28;20041;-64
2022/03/28 04:19:00;;;;;;;2.00;1.25;;;21.80;39.40;;;;;;4999172;28;20094;-63
2022/03/28 04:21:26;;;;;;;1.92;1.30;;;21.80;39.40;;;;;;5000263;28;20170;-62
2022/03/28 04:23:51;;;;;;;2.00;1.20;;;21.80;39.50;;;;;;5000491;28;20090;-61
2022/03/28 04:26:17;;;;;;;1.77;1.20;;;21.80;39.40;;;;;;4999343;28;20525;-65
2022/03/28 04:28:43;;;;;;;1.90;1.30;;;21.80;39.50;;;;;;5003257;28;20113;-61
2022/03/28 04:31:09;;;;;;;1.58;1.30;;;21.80;39.40;;;;;;4999235;28;20581;-64
2022/03/28 04:33:35;;;;;;;1.88;1.25;;;21.80;39.50;;;;;;4999535;28;20382;-64
2022/03/28 04:36:01;;;;;;;1.70;1.10;;;21.80;40.00;;;;;;5003086;28;20032;-65
2022/03/28 04:38:26;;;;;;;1.80;1.35;;;21.80;39.50;;;;;;5004743;28;20718;-63
2022/03/28 04:40:53;;;;;;;1.90;1.20;;;21.80;39.50;;;;;;5003673;28;20117;-61
2022/03/28 04:43:18;;;;;;;2.10;1.27;;;21.80;39.50;;;;;;4999187;28;20342;-64
2022/03/28 04:45:44;;;;;;;1.60;1.20;;;21.80;39.50;;;;;;4997844;28;20109;-65
2022/03/28 04:48:10;;;;;;;1.75;1.23;;;21.70;39.40;;;;;;4999202;28;20105;-62
2022/03/28 04:50:35;;;;;;;1.98;1.30;;;21.80;39.50;;;;;;4995656;28;20041;-62
2022/03/28 04:53:01;;;;;;;1.70;1.30;;;21.80;39.50;;;;;;5000595;28;20053;-67
2022/03/28 04:55:27;;;;;;;2.35;1.30;;;21.70;39.50;;;;;;5001301;28;20062;-63
2022/03/28 04:57:53;;;;;;;2.45;1.30;;;21.70;39.40;;;;;;5000060;28;20169;-67
2022/03/28 05:00:18;;;;;;;1.55;1.20;;;21.70;39.40;;;;;;5000228;28;20030;-64
2022/03/28 05:02:44;;;;;;;1.55;1.20;;;21.70;39.40;;;;;;5001148;28;20097;-63
2022/03/28 05:05:10;;;;;;;1.60;1.20;;;21.70;39.50;;;;;;4998960;28;20207;-67
2022/03/28 05:07:36;;;;;;;2.20;1.30;;;21.70;39.50;;;;;;4995433;28;20061;-62
2022/03/28 05:10:05;;;;;;;1.83;1.25;;;21.70;39.50;;;;;;5003412;28;22018;-62
2022/03/28 05:12:31;;;;;;;2.08;1.30;;;21.70;39.50;;;;;;5002782;28;20055;-62
2022/03/28 05:14:56;;;;;;;2.33;1.38;;;21.70;39.50;;;;;;5004698;28;20330;-66
2022/03/28 05:17:27;;;;;;;1.83;1.23;;;21.70;39.50;;;;;;4999819;28;20130;-64
2022/03/28 05:19:54;;;;;;;1.70;1.30;;;21.70;39.50;;;;;;5004623;28;20037;-64
2022/03/28 05:22:20;;;;;;;1.75;1.20;;;21.70;39.50;;;;;;5004197;28;20113;-64
2022/03/28 05:24:47;;;;;;;2.55;1.23;;;21.70;39.50;;;;;;4998554;28;20145;-62
2022/03/28 05:27:13;;;;;;;1.75;1.20;;;21.70;39.50;;;;;;5000708;28;20042;-62
2022/03/28 05:29:39;;;;;;;3.08;1.30;;;21.70;39.60;;;;;;5002950;28;20052;-66
2022/03/28 05:32:05;;;;;;;2.33;1.40;;;21.70;39.60;;;;;;4999967;28;20042;-62
2022/03/28 05:34:30;;;;;;;1.80;1.15;;;21.70;39.60;;;;;;4999861;28;20121;-65
2022/03/28 05:37:01;;;;;;;1.85;1.27;;;21.70;39.60;;;;;;5000585;28;20153;-62
2022/03/28 05:39:27;;;;;;;2.15;1.25;;;21.70;39.60;;;;;;5001996;28;20038;-62
2022/03/28 05:41:53;;;;;;;2.15;1.40;;;21.70;39.60;;;;;;5000061;28;20100;-67
2022/03/28 05:44:20;;;;;;;3.22;1.20;;;21.70;39.60;;;;;;5003328;28;20022;-64
2022/03/28 05:46:48;;;;;;;1.90;1.25;;;21.70;39.60;;;;;;4998059;28;20022;-63
2022/03/28 05:49:14;;;;;;;1.92;1.23;;;21.60;39.70;;;;;;4999884;28;20413;-64
2022/03/28 05:51:39;;;;;;;1.90;1.30;;;21.70;39.70;;;;;;4999404;28;20030;-66
2022/03/28 05:54:05;;;;;;;2.65;1.50;;;21.70;39.70;;;;;;5005002;28;20026;-61
2022/03/28 05:56:31;;;;;;;2.63;1.45;;;21.60;39.60;;;;;;5004150;28;20046;-65
2022/03/28 05:58:57;;;;;;;2.67;1.40;;;21.60;39.60;;;;;;5005547;28;20362;-64
2022/03/28 06:01:22;;;;;;;2.83;1.48;;;21.70;39.70;;;;;;5001950;28;20042;-63
2022/03/28 06:03:48;;;;;;;2.05;1.35;;;21.60;39.60;;;;;;5002994;28;20050;-59
2022/03/28 06:06:13;;;;;;;3.13;1.48;;;21.60;39.60;;;;;;5002720;28;20378;-67
2022/03/28 06:08:39;;;;;;;2.20;1.50;;;21.60;39.60;;;;;;5003551;28;20394;-59
2022/03/28 06:11:05;;;;;;;2.50;1.38;;;21.60;39.60;;;;;;5004780;28;20034;-61
2022/03/28 06:13:31;;;;;;;3.42;1.27;;;21.60;39.60;;;;;;5004118;28;20948;-61
2022/03/28 06:16:02;;;;;;;2.80;1.35;;;21.60;40.10;;;;;;5000802;28;20614;-62
2022/03/28 06:18:28;;;;;;;2.17;1.48;;;21.60;39.60;;;;;;5001787;28;20041;-65
2022/03/28 06:20:54;;;;;;;2.60;1.45;;;21.60;39.60;;;;;;5006472;28;20022;-63
2022/03/28 06:23:19;;;;;;;2.50;1.38;;;21.60;39.60;;;;;;5005000;28;20026;-63
2022/03/28 06:25:45;;;;;;;1.95;1.33;;;21.60;39.60;;;;;;5004597;28;20036;-61
2022/03/28 06:28:12;;;;;;;2.20;1.35;;;21.60;39.60;;;;;;5003122;28;20119;-67
2022/03/28 06:30:38;;;;;;;2.38;1.50;;;21.60;39.60;;;;;;5001898;28;20429;-67
2022/03/28 06:33:03;;;;;;;2.67;1.60;;;21.60;39.70;;;;;;4996998;28;20034;-66
2022/03/28 06:35:29;;;;;;;2.03;1.40;;;21.60;39.60;;;;;;5005093;28;20065;-60
2022/03/28 06:37:55;;;;;;;1.85;1.30;;;21.60;39.60;;;;;;5005076;28;20173;-66
2022/03/28 06:40:22;;;;;;;2.10;1.50;;;21.60;39.60;;;;;;5005692;28;20461;-62
2022/03/28 06:42:47;;;;;;;2.15;1.40;;;21.50;39.60;;;;;;5018654;28;20062;-65
2022/03/28 06:45:14;;;;;;;2.42;1.50;;;21.60;39.60;;;;;;5002690;28;20072;-61
2022/03/28 06:47:39;;;;;;;2.00;1.20;;;21.50;39.60;;;;;;5000260;28;20427;-60
2022/03/28 06:50:07;;;;;;;2.30;1.33;;;21.50;39.60;;;;;;5003153;28;20084;-65
2022/03/28 06:52:33;;;;;;;2.53;1.48;;;21.50;39.60;;;;;;5002737;28;20261;-64
2022/03/28 06:54:59;;;;;;;1.80;1.30;;;21.50;39.60;;;;;;5004289;28;20044;-64
2022/03/28 06:57:25;;;;;;;2.13;1.27;;;21.50;39.60;;;;;;5004220;28;20038;-61
2022/03/28 06:59:51;;;;;;;2.33;1.38;;;21.50;39.60;;;;;;5004084;28;20103;-62
2022/03/28 07:02:17;;;;;;;2.38;1.52;;;21.50;39.60;;;;;;4997780;28;20060;-65
2022/03/28 07:04:43;;;;;;;2.00;1.40;;;21.50;39.60;;;;;;5003785;28;20026;-63
2022/03/28 07:07:08;;;;;;;2.75;1.50;;;21.50;39.60;;;;;;5004175;28;20080;-61
2022/03/28 07:09:35;;;;;;;2.67;1.50;;;21.50;39.60;;;;;;5003967;28;20030;-63
2022/03/28 07:12:03;;;;;;;2.65;1.55;;;21.50;39.60;;;;;;5006886;28;20033;-61
2022/03/28 07:14:28;;;;;;;2.88;1.45;;;21.50;39.60;;;;;;5007151;28;20450;-62
2022/03/28 07:16:54;;;;;;;2.65;1.50;;;21.50;39.60;;;;;;5004316;28;20026;-62
2022/03/28 07:19:19;;;;;;;2.10;1.45;;;21.50;39.60;;;;;;5006750;28;20029;-62
2022/03/28 07:21:45;;;;;;;3.75;1.92;;;21.50;39.60;;;;;;5007735;28;20065;-64
2022/03/28 07:24:11;;;;;;;2.08;1.40;;;21.50;39.60;;;;;;5006632;28;20029;-60
2022/03/28 07:26:36;;;;;;;2.47;1.42;;;21.50;39.50;;;;;;5006217;28;20434;-60
2022/03/28 07:29:04;;;;;;;2.35;1.50;;;21.50;39.50;;;;;;5009382;28;20099;-65
2022/03/28 07:31:29;;;;;;;2.33;1.30;;;21.50;39.50;;;;;;5004156;28;20414;-64
2022/03/28 07:34:29;;;;;;;2.55;1.52;;;21.50;39.50;;;;;;5005485;28;20034;-63
2022/03/28 07:36:41;;;;;;;2.85;1.50;;;21.50;39.50;;;;;;5006203;28;20030;-67
2022/03/28 07:39:06;;;;;;;2.33;1.27;;;21.50;39.50;;;;;;5007016;28;20049;-62
2022/03/28 07:41:32;;;;;;;3.03;1.58;;;21.50;39.50;;;;;;5007314;28;20065;-63
2022/03/28 07:43:57;;;;;;;3.25;1.52;;;21.50;39.60;;;;;;5006015;28;20038;-65
2022/03/28 07:46:23;;;;;;;2.05;1.50;;;21.50;39.60;;;;;;5019639;28;20474;-65
2022/03/28 07:48:48;;;;;;;2.35;1.30;;;21.50;39.60;;;;;;5005252;28;20026;-65
2022/03/28 07:51:14;;;;;;;2.72;1.70;;;21.50;39.60;;;;;;5005933;28;20490;-64
2022/03/28 07:53:40;;;;;;;2.83;1.70;;;21.50;39.60;;;;;;5006791;28;20030;-66
2022/03/28 07:56:05;;;;;;;2.10;1.50;;;21.50;39.60;;;;;;5004407;28;20708;-64
2022/03/28 07:58:31;;;;;;;2.53;1.48;;;21.50;39.60;;;;;;5007410;28;20026;-65
2022/03/28 08:00:57;;;;;;;2.17;1.30;;;21.50;39.60;;;;;;5006554;28;20052;-62
2022/03/28 08:03:22;;;;;;;2.60;1.40;;;21.50;39.60;;;;;;5003310;28;20440;-60
2022/03/28 08:05:48;;;;;;;2.78;1.50;;;21.50;39.60;;;;;;5006727;28;20080;-59
2022/03/28 08:08:13;;;;;;;1.98;1.38;;;21.50;39.70;;;;;;5007945;28;20068;-61
2022/03/28 08:10:39;;;;;;;2.45;1.50;;;21.50;39.70;;;;;;5006218;28;20490;-64
2022/03/28 08:13:05;;;;;;;2.33;1.67;;;21.50;39.70;;;;;;5006583;28;20076;-67
2022/03/28 08:15:31;;;;;;;2.38;1.60;;;21.40;39.60;;;;;;5007261;28;20030;-66
2022/03/28 08:18:00;;;;;;;2.20;1.50;;;21.50;39.70;;;;;;5011853;28;20030;-66
2022/03/28 08:20:26;;;;;;;2.55;1.48;;;21.50;39.70;;;;;;5006207;28;20430;-64
2022/03/28 08:22:52;;;;;;;2.50;1.48;;;21.50;39.70;;;;;;5006108;28;20475;-67
2022/03/28 08:25:19;;;;;;;2.53;1.50;;;21.50;39.70;;;;;;5007262;28;20489;-65
2022/03/28 08:27:45;;;;;;;2.35;1.55;;;21.50;39.70;;;;;;5006834;28;20061;-65
2022/03/28 08:30:12;;;;;;;2.40;1.50;;;21.40;39.60;;;;;;5003776;28;20022;-66
2022/03/28 08:32:39;;;;;;;2.17;1.55;;;21.50;39.70;;;;;;5003725;28;20084;-61
2022/03/28 08:35:06;;;;;;;2.90;1.38;;;21.50;39.70;;;;;;5005695;28;20048;-64
2022/03/28 08:37:31;;;;;;;2.58;1.70;;;21.50;39.70;;;;;;5004828;28;20099;-63
2022/03/28 08:39:57;;;;;;;2.20;1.40;;;21.40;39.70;;;;;;5006537;28;20030;-62
2022/03/28 08:42:26;;;;;;;2.00;1.48;;;21.40;39.70;;;;;;5006951;28;20042;-64
2022/03/28 08:44:52;;;;;;;2.28;1.48;;;21.50;39.80;;;;;;5007205;28;20076;-64
2022/03/28 08:47:19;;;;;;;2.22;1.60;;;21.50;39.80;;;;;;5002556;28;20577;-67
2022/03/28 08:49:49;;;;;;;2.63;1.60;;;21.40;39.80;;;;;;5006333;28;20041;-62
2022/03/28 08:52:20;;;;;;;2.20;1.42;;;21.50;39.80;;;;;;5005857;28;20049;-63
2022/03/28 08:54:46;;;;;;;2.33;1.60;;;21.40;39.80;;;;;;5007503;28;20393;-62
2022/03/28 08:57:13;;;;;;;2.60;1.50;;;21.40;39.80;;;;;;5006097;28;20153;-63
2022/03/28 08:59:39;;;;;;;2.50;1.60;;;21.40;39.80;;;;;;5006815;28;20073;-63
2022/03/28 09:02:05;;;;;;;2.42;1.60;;;21.40;39.80;;;;;;5001932;28;20141;-61
2022/03/28 09:04:35;;;;;;;2.20;1.45;;;21.40;39.80;;;;;;5003346;28;20040;-65
2022/03/28 09:07:00;;;;;;;2.10;1.30;;;21.40;39.80;;;;;;5006157;28;20030;-66
2022/03/28 09:09:28;;;;;;;2.00;1.50;;;21.40;39.90;;;;;;5006673;28;20053;-64
2022/03/28 09:12:04;;;;;;;2.15;1.40;;;21.40;39.90;;;;;;5005664;28;20046;-63
2022/03/28 09:14:37;;;;;;;2.55;1.60;;;21.40;39.90;;;;;;5006467;28;20026;-66
2022/03/28 09:17:09;;;;;;;2.10;1.50;;;21.40;39.90;;;;;;5002424;28;20040;-60
2022/03/28 09:19:52;;;;;;;2.38;1.42;;;21.40;39.90;;;;;;5005293;28;20451;-62
2022/03/28 09:22:23;;;;;;;2.83;1.42;;;21.40;39.90;;;;;;5005458;28;20048;-64
2022/03/28 09:24:51;;;;;;;3.08;1.60;;;21.40;39.90;;;;;;5005533;28;20478;-61
2022/03/28 09:27:23;;;;;;;2.22;1.30;;;21.40;39.90;;;;;;5004124;28;20029;-64
2022/03/28 09:30:10;;;;;;;2.30;1.40;;;21.40;39.90;;;;;;5003913;28;20026;-61
2022/03/28 09:32:37;;;;;;;2.90;1.60;;;21.40;40.00;;;;;;5001145;28;20038;-65
2022/03/28 09:35:12;;;;;;;2.17;1.52;;;21.40;40.00;;;;;;5004252;28;20629;-65
2022/03/28 09:37:58;;;;;;;3.95;1.80;;;21.40;40.00;;;;;;5003830;28;20041;-62
2022/03/28 09:40:36;;;;;;;3.05;1.80;;;21.40;40.10;;;;;;5002750;28;20470;-62
2022/03/28 09:43:05;;;;;;;3.75;1.80;;;21.40;40.10;;;;;;5005255;28;20050;-65
2022/03/28 09:45:34;;;;;;;;;;;21.40;40.00;;;;;;5005154;28;20029;-62
2022/03/28 09:48:06;;;;;;;3.42;1.80;;;21.40;40.50;;;;;;5002805;28;19913;-61
2022/03/28 09:50:37;;;;;;;3.85;1.70;;;21.40;39.90;;;;;;5004064;28;20080;-65
2022/03/28 09:53:17;;;;;;;3.15;1.98;;;21.40;39.90;;;;;;5005904;28;20386;-65
2022/03/28 09:55:46;;;;;;;3.95;1.80;;;21.40;39.90;;;;;;5002753;28;20026;-65
2022/03/28 09:58:31;;;;;;;3.53;1.77;;;21.40;39.90;;;;;;5005762;28;20167;-65
2022/03/28 10:00:56;;;;;;;3.72;1.85;;;21.40;40.00;;;;;;5002491;28;20046;-65
2022/03/28 10:03:23;;;;;;;3.83;1.85;;;21.40;40.00;;;;;;5018386;28;20034;-63
2022/03/28 10:05:50;;;;;;;4.07;2.00;;;21.40;40.00;;;;;;5003322;28;20049;-64
2022/03/28 10:08:16;;;;;;;2.80;1.63;;;21.40;40.00;;;;;;5004231;28;20057;-64
2022/03/28 10:10:41;;;;;;;4.22;1.80;;;21.40;40.00;;;;;;5004247;28;20033;-65
2022/03/28 10:13:08;;;;;;;3.30;1.63;;;21.40;40.00;;;;;;5004555;28;20030;-65
2022/03/28 10:15:33;;;;;;;3.53;1.77;;;21.40;40.00;;;;;;5004747;28;20109;-62
2022/03/28 10:17:59;;;;;;;3.38;1.80;;;21.40;40.00;;;;;;5017096;28;20545;-66
2022/03/28 10:20:25;;;;;;;3.47;1.80;;;21.40;40.00;;;;;;5004311;28;20270;-61
2022/03/28 10:22:53;;;;;;;5.03;1.80;;;21.40;40.00;;;;;;5003615;28;20345;-62
2022/03/28 10:25:22;;;;;;;2.60;1.60;;;21.40;40.00;;;;;;5005515;28;20085;-62
2022/03/28 10:27:51;;;;;;;2.85;1.65;;;21.40;40.00;;;;;;5004038;28;20473;-66
2022/03/28 10:30:24;;;;;;;4.85;2.00;;;21.40;40.00;;;;;;5002555;28;20345;-66
2022/03/28 10:33:16;;;;;;;2.70;1.65;;;21.40;40.00;;;;;;5001469;28;20446;-66
2022/03/28 10:35:56;;;;;;;2.72;1.60;;;21.40;40.00;;;;;;5003010;28;20026;-62
2022/03/28 10:38:22;;;;;;;3.35;1.70;;;21.40;40.00;;;;;;5005031;28;20108;-61
2022/03/28 10:41:02;;;;;;;3.70;1.88;;;21.40;40.00;;;;;;5003183;28;20066;-65
2022/03/28 10:43:31;;;;;;;2.85;1.75;;;21.40;40.00;;;;;;5002843;28;20033;-65
2022/03/28 10:45:58;;;;;;;2.97;1.80;;;21.40;40.00;;;;;;5002394;28;20915;-62
2022/03/28 10:48:40;;;;;;;2.53;1.50;;;21.40;40.00;;;;;;5004103;28;20037;-66
2022/03/28 10:51:10;;;;;;;3.15;1.95;;;21.40;40.00;;;;;;5003874;28;20041;-65
2022/03/28 10:53:39;;;;;;;2.67;1.58;;;21.40;40.00;;;;;;5005220;28;20059;-65
2022/03/28 10:56:20;;;;;;;2.40;1.50;;;21.40;40.00;;;;;;5002866;28;20021;-63
2022/03/28 10:58:55;;;;;;;2.55;1.70;;;21.30;40.00;;;;;;5005469;28;20025;-62
2022/03/28 11:01:26;;;;;;;3.08;1.52;;;21.40;40.00;;;;;;5002346;28;20119;-64
2022/03/28 11:03:53;;;;;;;2.78;1.52;;;21.40;40.00;;;;;;5003188;28;20026;-67
2022/03/28 11:06:40;;;;;;;4.25;1.75;;;21.40;40.00;;;;;;5003328;28;20053;-62
2022/03/28 11:09:06;;;;;;;2.97;1.50;;;21.40;40.00;;;;;;5005007;28;20022;-62
2022/03/28 11:11:33;;;;;;;2.60;1.75;;;21.40;39.90;;;;;;5003785;28;20029;-66
2022/03/28 11:14:12;;;;;;;2.63;1.50;;;21.40;39.90;;;;;;5003554;28;20045;-67
2022/03/28 11:16:38;;;;;;;;;;;21.40;39.90;;;;;;5003136;28;20060;-60
2022/03/28 11:19:22;;;;;;;3.03;1.80;;;21.40;39.90;;;;;;5002490;28;19905;-63
2022/03/28 11:22:03;;;;;;;2.20;1.58;;;21.40;39.90;;;;;;5003819;28;20037;-67
2022/03/28 11:24:49;;;;;;;2.75;1.55;;;21.40;39.90;;;;;;5004936;28;20030;-61
2022/03/28 11:27:19;;;;;;;4.20;1.75;;;21.40;39.80;;;;;;5002985;28;20526;-67
2022/03/28 11:29:46;;;;;;;3.00;1.80;;;21.40;39.80;;;;;;5005091;28;20620;-65
2022/03/28 11:32:19;;;;;;;2.53;1.45;;;21.50;39.90;;;;;;4998613;28;20129;-65
2022/03/28 11:34:54;;;;;;;2.72;1.50;;;21.40;39.80;;;;;;5003759;28;20500;-63
2022/03/28 11:37:23;;;;;;;2.28;1.60;;;21.50;39.90;;;;;;4999766;28;20389;-66
2022/03/28 11:39:54;;;;;;;2.53;1.52;;;21.40;39.80;;;;;;5004029;28;20483;-62
2022/03/28 11:42:22;;;;;;;2.35;1.70;;;21.50;39.90;;;;;;5000092;28;20550;-63
2022/03/28 11:44:49;;;;;;;3.00;1.88;;;21.50;39.90;;;;;;4999309;28;20026;-62
2022/03/28 11:47:17;;;;;;;2.50;1.50;;;21.50;39.80;;;;;;4999794;28;20111;-62
2022/03/28 11:50:01;;;;;;;2.55;1.63;;;21.50;39.80;;;;;;5011113;28;20026;-63
2022/03/28 11:52:28;;;;;;;2.42;1.70;;;21.50;39.80;;;;;;4994475;28;20057;-62
2022/03/28 11:54:56;;;;;;;3.30;1.60;;;21.50;39.80;;;;;;5003182;28;20088;-61
2022/03/28 12:00:25;;;;;;;2.03;1.33;;;21.50;39.80;;;;;;5004057;28;20634;-67
2022/03/28 12:02:55;;;;;;;2.60;1.70;;;21.50;39.80;;;;;;5003662;28;20041;-62
2022/03/28 12:05:31;;;;;;;2.55;1.60;;;21.50;39.70;;;;;;5005899;28;20069;-64
2022/03/28 12:07:59;;;;;;;2.20;1.60;;;21.60;39.80;;;;;;5020917;28;20099;-66
2022/03/28 12:10:32;;;;;;;2.95;1.90;;;21.50;39.70;;;;;;5006810;28;20576;-62
2022/03/28 12:12:59;;;;;;;2.17;1.42;;;21.50;39.70;;;;;;5005815;28;20030;-66
2022/03/28 12:15:34;;;;;;;2.63;1.50;;;21.50;39.80;;;;;;5005520;28;20534;-65
2022/03/28 12:18:05;;;;;;;2.03;1.35;;;21.60;39.80;;;;;;5004980;28;20450;-62
2022/03/28 12:20:34;;;;;;;2.85;1.50;;;21.50;39.70;;;;;;5006849;28;20109;-65
2022/03/28 12:23:01;;;;;;;3.17;1.70;;;21.50;39.70;;;;;;5006370;28;20034;-65
2022/03/28 12:25:32;;;;;;;2.95;1.70;;;21.60;39.70;;;;;;5005006;28;20081;-62
2022/03/28 12:27:59;;;;;;;2.67;1.77;;;21.60;39.80;;;;;;5005921;28;20045;-61
2022/03/28 12:30:31;;;;;;;2.33;1.50;;;21.60;39.70;;;;;;5005577;28;20546;-63
2022/03/28 12:32:57;;;;;;;2.70;1.55;;;21.60;39.80;;;;;;5018803;28;20080;-67
2022/03/28 12:35:23;;;;;;;2.63;1.60;;;21.60;39.70;;;;;;5004658;28;20117;-65
2022/03/28 12:38:04;;;;;;;2.65;1.52;;;21.60;39.70;;;;;;5005559;28;20106;-66
2022/03/28 12:40:31;;;;;;;3.17;1.73;;;21.60;39.70;;;;;;5006554;28;20065;-65
2022/03/28 12:42:58;;;;;;;2.70;1.70;;;21.60;39.70;;;;;;5005790;28;20034;-67
2022/03/28 12:45:29;;;;;;;2.00;1.40;;;21.60;39.70;;;;;;5003885;28;20030;-67
2022/03/28 12:48:07;;;;;;;2.85;1.63;;;21.60;39.70;;;;;;5004390;28;20173;-65
2022/03/28 12:50:34;;;;;;;2.10;1.50;;;21.60;39.70;;;;;;5006287;28;20498;-61
2022/03/28 12:53:14;;;;;;;3.30;1.80;;;21.60;39.70;;;;;;5006594;28;20105;-65